sensor_id;sensor_type;location;lat;lon;timestamp;pressure;altitude;pressure_sealevel;temperature;humidity
32747;BME280;19118;50.860;13.662;2022-07-09T00:04:22;97909.44;;;15.25;87.71
32747;BME280;19118;50.860;13.662;2022-07-09T00:09:22;97910.66;;;15.16;88.39
32747;BME280;19118;50.860;13.662;2022-07-09T00:14:23;97905.16;;;15.18;88.47
32747;BME280;19118;50.860;13.662;2022-07-09T00:19:23;97913.72;;;15.13;88.71
32747;BME280;19118;50.860;13.662;2022-07-09T00:24:23;97906.56;;;15.20;88.59
32747;BME280;19118;50.860;13.662;2022-07-09T00:29:24;97907.34;;;14.94;89.20
32747;BME280;19118;50.860;13.662;2022-07-09T00:34:24;97901.81;;;14.76;90.35
32747;BME280;19118;50.860;13.662;2022-07-09T00:39:25;97901.41;;;14.92;89.83
32747;BME280;19118;50.860;13.662;2022-07-09T00:44:25;97907.97;;;14.90;90.20
32747;BME280;19118;50.860;13.662;2022-07-09T00:49:28;97897.75;;;15.39;87.21
32747;BME280;19118;50.860;13.662;2022-07-09T00:54:29;97888.72;;;15.27;87.61
32747;BME280;19118;50.860;13.662;2022-07-09T00:59:29;97892.84;;;15.36;87.37
32747;BME280;19118;50.860;13.662;2022-07-09T01:04:30;97880.13;;;15.45;86.72
32747;BME280;19118;50.860;13.662;2022-07-09T01:09:30;97883.41;;;15.14;88.93
32747;BME280;19118;50.860;13.662;2022-07-09T01:14:31;97872.34;;;15.43;87.08
32747;BME280;19118;50.860;13.662;2022-07-09T01:19:32;97863.91;;;15.40;86.83
32747;BME280;19118;50.860;13.662;2022-07-09T01:24:33;97865.38;;;15.42;86.65
32747;BME280;19118;50.860;13.662;2022-07-09T01:29:34;97860.66;;;15.18;88.74
32747;BME280;19118;50.860;13.662;2022-07-09T01:34:36;97855.50;;;15.56;87.29
32747;BME280;19118;50.860;13.662;2022-07-09T01:39:36;97845.22;;;15.73;86.42
32747;BME280;19118;50.860;13.662;2022-07-09T01:44:50;97839.72;;;15.61;86.33
32747;BME280;19118;50.860;13.662;2022-07-09T01:49:50;97831.28;;;15.58;86.80
32747;BME280;19118;50.860;13.662;2022-07-09T01:54:50;97823.94;;;15.60;86.61
32747;BME280;19118;50.860;13.662;2022-07-09T01:59:51;97818.38;;;15.61;86.51
32747;BME280;19118;50.860;13.662;2022-07-09T02:04:51;97808.31;;;15.50;87.26
32747;BME280;19118;50.860;13.662;2022-07-09T02:09:52;97798.50;;;15.64;87.34
32747;BME280;19118;50.860;13.662;2022-07-09T02:14:52;97794.22;;;15.43;87.94
32747;BME280;19118;50.860;13.662;2022-07-09T02:19:53;97800.09;;;15.78;86.51
32747;BME280;19118;50.860;13.662;2022-07-09T02:24:54;97794.72;;;15.85;86.03
32747;BME280;19118;50.860;13.662;2022-07-09T02:29:54;97793.72;;;15.79;87.51
32747;BME280;19118;50.860;13.662;2022-07-09T02:34:54;97792.13;;;16.16;86.19
32747;BME280;19118;50.860;13.662;2022-07-09T02:39:55;97790.84;;;16.25;86.19
32747;BME280;19118;50.860;13.662;2022-07-09T02:44:55;97792.34;;;16.46;86.56
32747;BME280;19118;50.860;13.662;2022-07-09T02:49:55;97788.56;;;16.60;86.09
32747;BME280;19118;50.860;13.662;2022-07-09T02:54:56;97806.91;;;16.50;85.91
32747;BME280;19118;50.860;13.662;2022-07-09T02:59:57;97802.25;;;16.39;85.69
32747;BME280;19118;50.860;13.662;2022-07-09T03:04:57;97801.13;;;16.53;85.43
32747;BME280;19118;50.860;13.662;2022-07-09T03:09:58;97787.72;;;16.67;85.81
32747;BME280;19118;50.860;13.662;2022-07-09T03:14:59;97787.78;;;16.85;85.73
32747;BME280;19118;50.860;13.662;2022-07-09T03:19:59;97788.13;;;16.70;86.22
32747;BME280;19118;50.860;13.662;2022-07-09T03:25:00;97789.94;;;16.38;87.40
32747;BME280;19118;50.860;13.662;2022-07-09T03:30:02;97786.53;;;16.56;86.42
32747;BME280;19118;50.860;13.662;2022-07-09T03:35:03;97787.53;;;16.62;85.97
32747;BME280;19118;50.860;13.662;2022-07-09T03:40:04;97789.25;;;16.49;86.74
32747;BME280;19118;50.860;13.662;2022-07-09T03:45:05;97780.38;;;16.55;87.15
32747;BME280;19118;50.860;13.662;2022-07-09T03:50:06;97791.38;;;16.72;86.33
32747;BME280;19118;50.860;13.662;2022-07-09T03:55:07;97795.88;;;16.78;86.04
32747;BME280;19118;50.860;13.662;2022-07-09T04:00:08;97806.31;;;16.48;87.17
32747;BME280;19118;50.860;13.662;2022-07-09T04:05:14;97808.88;;;16.30;88.17
32747;BME280;19118;50.860;13.662;2022-07-09T04:10:15;97800.88;;;16.62;87.30
32747;BME280;19118;50.860;13.662;2022-07-09T04:15:15;97810.97;;;18.14;83.26
32747;BME280;19118;50.860;13.662;2022-07-09T04:20:15;97802.63;;;17.49;84.27
32747;BME280;19118;50.860;13.662;2022-07-09T04:25:16;97809.16;;;17.53;85.22
32747;BME280;19118;50.860;13.662;2022-07-09T04:30:16;97801.94;;;17.79;83.72
32747;BME280;19118;50.860;13.662;2022-07-09T04:35:17;97814.28;;;17.80;82.63
32747;BME280;19118;50.860;13.662;2022-07-09T04:40:17;97813.41;;;18.16;81.92
32747;BME280;19118;50.860;13.662;2022-07-09T04:45:18;97817.94;;;18.15;81.93
32747;BME280;19118;50.860;13.662;2022-07-09T04:50:18;97816.13;;;18.87;79.40
32747;BME280;19118;50.860;13.662;2022-07-09T04:55:19;97817.22;;;18.68;79.59
32747;BME280;19118;50.860;13.662;2022-07-09T05:00:20;97812.63;;;18.57;78.96
32747;BME280;19118;50.860;13.662;2022-07-09T05:05:20;97819.38;;;18.48;79.14
32747;BME280;19118;50.860;13.662;2022-07-09T05:10:23;97805.16;;;18.77;77.94
32747;BME280;19118;50.860;13.662;2022-07-09T05:15:24;97805.84;;;20.01;75.37
32747;BME280;19118;50.860;13.662;2022-07-09T05:20:24;97789.63;;;26.55;56.45
32747;BME280;19118;50.860;13.662;2022-07-09T05:25:24;97811.34;;;28.10;51.05
32747;BME280;19118;50.860;13.662;2022-07-09T05:30:25;97812.09;;;26.01;54.80
32747;BME280;19118;50.860;13.662;2022-07-09T05:35:25;97796.94;;;23.32;60.80
32747;BME280;19118;50.860;13.662;2022-07-09T05:40:26;97804.59;;;20.78;66.57
32747;BME280;19118;50.860;13.662;2022-07-09T05:45:26;97799.25;;;20.21;68.75
32747;BME280;19118;50.860;13.662;2022-07-09T05:50:27;97789.28;;;21.12;66.75
32747;BME280;19118;50.860;13.662;2022-07-09T05:55:27;97786.53;;;20.90;67.81
32747;BME280;19118;50.860;13.662;2022-07-09T06:00:28;97786.75;;;19.86;69.39
32747;BME280;19118;50.860;13.662;2022-07-09T06:05:28;97769.69;;;21.50;65.90
32747;BME280;19118;50.860;13.662;2022-07-09T06:10:29;97778.53;;;21.29;66.94
32747;BME280;19118;50.860;13.662;2022-07-09T06:15:29;97767.13;;;20.88;68.11
32747;BME280;19118;50.860;13.662;2022-07-09T06:20:30;97759.78;;;21.17;67.46
32747;BME280;19118;50.860;13.662;2022-07-09T06:25:31;97758.16;;;21.16;67.45
32747;BME280;19118;50.860;13.662;2022-07-09T06:30:32;97753.66;;;21.21;67.81
32747;BME280;19118;50.860;13.662;2022-07-09T06:35:34;97746.25;;;21.12;69.38
32747;BME280;19118;50.860;13.662;2022-07-09T06:40:34;97757.19;;;22.26;65.36
32747;BME280;19118;50.860;13.662;2022-07-09T06:50:36;97762.19;;;21.96;65.81
32747;BME280;19118;50.860;13.662;2022-07-09T06:55:36;97769.44;;;20.96;68.69
32747;BME280;19118;50.860;13.662;2022-07-09T07:00:36;97769.81;;;21.05;67.81
32747;BME280;19118;50.860;13.662;2022-07-09T07:05:37;97768.44;;;21.02;68.81
32747;BME280;19118;50.860;13.662;2022-07-09T07:10:37;97775.34;;;20.08;71.45
32747;BME280;19118;50.860;13.662;2022-07-09T07:15:37;97771.53;;;19.92;72.39
32747;BME280;19118;50.860;13.662;2022-07-09T07:20:38;97768.22;;;19.73;73.46
32747;BME280;19118;50.860;13.662;2022-07-09T07:25:38;97759.69;;;19.76;73.17
32747;BME280;19118;50.860;13.662;2022-07-09T07:30:38;97746.63;;;20.08;73.29
32747;BME280;19118;50.860;13.662;2022-07-09T07:35:39;97760.47;;;19.88;72.95
32747;BME280;19118;50.860;13.662;2022-07-09T07:40:39;97759.31;;;19.84;73.95
32747;BME280;19118;50.860;13.662;2022-07-09T07:45:39;97760.38;;;19.83;72.84
32747;BME280;19118;50.860;13.662;2022-07-09T07:50:40;97753.19;;;20.00;73.17
32747;BME280;19118;50.860;13.662;2022-07-09T07:55:40;97761.44;;;20.39;72.54
32747;BME280;19118;50.860;13.662;2022-07-09T08:00:41;97769.25;;;20.12;72.62
32747;BME280;19118;50.860;13.662;2022-07-09T08:05:41;97762.66;;;19.91;72.73
32747;BME280;19118;50.860;13.662;2022-07-09T08:10:41;97759.03;;;20.26;72.52
32747;BME280;19118;50.860;13.662;2022-07-09T08:15:42;97747.91;;;20.62;71.12
32747;BME280;19118;50.860;13.662;2022-07-09T08:20:42;97747.63;;;22.14;66.30
32747;BME280;19118;50.860;13.662;2022-07-09T08:25:43;97750.25;;;21.43;66.98
32747;BME280;19118;50.860;13.662;2022-07-09T08:30:43;97749.75;;;21.90;66.52
32747;BME280;19118;50.860;13.662;2022-07-09T08:35:43;97753.28;;;20.96;68.99
32747;BME280;19118;50.860;13.662;2022-07-09T08:40:44;97754.44;;;21.00;69.99
32747;BME280;19118;50.860;13.662;2022-07-09T08:45:45;97752.31;;;20.69;71.13
32747;BME280;19118;50.860;13.662;2022-07-09T08:50:48;97752.88;;;20.71;70.25
32747;BME280;19118;50.860;13.662;2022-07-09T08:55:48;97740.50;;;20.86;70.51
32747;BME280;19118;50.860;13.662;2022-07-09T09:00:49;97732.59;;;20.80;70.25
32747;BME280;19118;50.860;13.662;2022-07-09T09:06:04;97737.94;;;21.13;68.97
32747;BME280;19118;50.860;13.662;2022-07-09T09:11:07;97746.44;;;20.88;68.96
32747;BME280;19118;50.860;13.662;2022-07-09T09:16:09;97737.44;;;21.16;68.00
32747;BME280;19118;50.860;13.662;2022-07-09T09:21:11;97734.84;;;21.60;66.69
32747;BME280;19118;50.860;13.662;2022-07-09T09:26:20;97739.97;;;21.62;67.76
32747;BME280;19118;50.860;13.662;2022-07-09T09:36:30;97729.56;;;20.59;71.00
32747;BME280;19118;50.860;13.662;2022-07-09T09:41:31;97724.16;;;21.65;68.75
32747;BME280;19118;50.860;13.662;2022-07-09T09:46:34;97725.69;;;21.22;68.83
32747;BME280;19118;50.860;13.662;2022-07-09T09:52:02;97728.91;;;21.80;68.18
32747;BME280;19118;50.860;13.662;2022-07-09T09:57:07;97730.78;;;21.02;70.29
32747;BME280;19118;50.860;13.662;2022-07-09T10:02:09;97725.22;;;21.64;68.38
32747;BME280;19118;50.860;13.662;2022-07-09T10:07:12;97713.56;;;21.59;68.30
32747;BME280;19118;50.860;13.662;2022-07-09T10:12:13;97714.41;;;21.04;69.48
32747;BME280;19118;50.860;13.662;2022-07-09T10:17:15;97709.13;;;20.75;70.47
32747;BME280;19118;50.860;13.662;2022-07-09T10:22:16;97706.91;;;19.93;75.50
32747;BME280;19118;50.860;13.662;2022-07-09T10:27:16;97724.94;;;19.46;79.17
32747;BME280;19118;50.860;13.662;2022-07-09T10:32:29;97711.94;;;19.26;86.09
32747;BME280;19118;50.860;13.662;2022-07-09T10:37:31;97701.63;;;20.60;84.34
32747;BME280;19118;50.860;13.662;2022-07-09T10:42:32;97706.00;;;21.77;77.86
32747;BME280;19118;50.860;13.662;2022-07-09T10:47:38;97711.09;;;20.97;77.09
32747;BME280;19118;50.860;13.662;2022-07-09T10:52:40;97698.81;;;20.22;80.58
32747;BME280;19118;50.860;13.662;2022-07-09T10:57:40;97702.50;;;20.04;82.32
32747;BME280;19118;50.860;13.662;2022-07-09T11:03:02;97697.53;;;20.41;81.18
32747;BME280;19118;50.860;13.662;2022-07-09T11:08:05;97692.25;;;20.97;78.44
32747;BME280;19118;50.860;13.662;2022-07-09T11:13:07;97672.16;;;21.87;75.98
32747;BME280;19118;50.860;13.662;2022-07-09T11:18:11;97685.41;;;20.89;76.49
32747;BME280;19118;50.860;13.662;2022-07-09T11:23:16;97687.38;;;20.77;76.75
32747;BME280;19118;50.860;13.662;2022-07-09T11:28:21;97679.69;;;21.63;74.52
32747;BME280;19118;50.860;13.662;2022-07-09T11:33:21;97682.88;;;21.60;73.37
32747;BME280;19118;50.860;13.662;2022-07-09T11:38:22;97684.16;;;21.13;75.63
32747;BME280;19118;50.860;13.662;2022-07-09T11:43:22;97678.13;;;21.67;71.51
32747;BME280;19118;50.860;13.662;2022-07-09T11:48:22;97674.91;;;22.19;69.73
32747;BME280;19118;50.860;13.662;2022-07-09T11:53:24;97673.41;;;22.97;66.87
32747;BME280;19118;50.860;13.662;2022-07-09T11:58:26;97664.31;;;23.61;66.64
32747;BME280;19118;50.860;13.662;2022-07-09T12:03:28;97666.28;;;23.80;67.53
32747;BME280;19118;50.860;13.662;2022-07-09T12:08:31;97665.50;;;22.85;68.18
32747;BME280;19118;50.860;13.662;2022-07-09T12:13:31;97656.97;;;22.99;69.01
32747;BME280;19118;50.860;13.662;2022-07-09T12:18:32;97654.09;;;22.09;69.92
32747;BME280;19118;50.860;13.662;2022-07-09T12:23:32;97647.03;;;21.15;70.90
32747;BME280;19118;50.860;13.662;2022-07-09T12:28:32;97637.44;;;21.63;70.20
32747;BME280;19118;50.860;13.662;2022-07-09T12:33:33;97630.81;;;22.62;67.54
32747;BME280;19118;50.860;13.662;2022-07-09T12:38:33;97630.28;;;22.28;67.75
32747;BME280;19118;50.860;13.662;2022-07-09T12:43:34;97629.31;;;21.58;67.14
32747;BME280;19118;50.860;13.662;2022-07-09T12:48:34;97622.25;;;21.52;68.19
32747;BME280;19118;50.860;13.662;2022-07-09T12:53:34;97611.84;;;21.39;67.88
32747;BME280;19118;50.860;13.662;2022-07-09T12:58:35;97607.50;;;22.46;65.39
32747;BME280;19118;50.860;13.662;2022-07-09T13:03:35;97608.78;;;22.33;65.96
32747;BME280;19118;50.860;13.662;2022-07-09T13:08:35;97601.09;;;22.20;65.20
32747;BME280;19118;50.860;13.662;2022-07-09T13:13:36;97592.44;;;21.15;67.13
32747;BME280;19118;50.860;13.662;2022-07-09T13:18:36;97593.69;;;22.05;66.94
32747;BME280;19118;50.860;13.662;2022-07-09T13:23:36;97586.19;;;22.07;66.39
32747;BME280;19118;50.860;13.662;2022-07-09T13:28:37;97587.06;;;22.18;67.05
32747;BME280;19118;50.860;13.662;2022-07-09T13:33:37;97584.56;;;21.52;67.03
32747;BME280;19118;50.860;13.662;2022-07-09T13:38:38;97589.75;;;21.59;67.88
32747;BME280;19118;50.860;13.662;2022-07-09T13:43:38;97581.28;;;21.50;66.73
32747;BME280;19118;50.860;13.662;2022-07-09T13:48:38;97562.13;;;21.68;66.27
32747;BME280;19118;50.860;13.662;2022-07-09T13:53:39;97566.06;;;22.57;65.16
32747;BME280;19118;50.860;13.662;2022-07-09T13:58:39;97549.03;;;23.97;61.44
32747;BME280;19118;50.860;13.662;2022-07-09T14:03:40;97553.06;;;23.69;62.28
32747;BME280;19118;50.860;13.662;2022-07-09T14:08:40;97548.41;;;24.76;60.45
32747;BME280;19118;50.860;13.662;2022-07-09T14:13:40;97547.13;;;24.53;60.92
32747;BME280;19118;50.860;13.662;2022-07-09T14:18:42;97539.25;;;24.67;61.43
32747;BME280;19118;50.860;13.662;2022-07-09T14:23:43;97527.69;;;24.00;62.80
32747;BME280;19118;50.860;13.662;2022-07-09T14:28:48;97523.91;;;23.81;61.74
32747;BME280;19118;50.860;13.662;2022-07-09T14:33:48;97502.41;;;23.08;64.51
32747;BME280;19118;50.860;13.662;2022-07-09T14:38:48;97506.00;;;23.34;64.13
32747;BME280;19118;50.860;13.662;2022-07-09T14:43:48;97488.78;;;23.96;61.62
32747;BME280;19118;50.860;13.662;2022-07-09T14:48:49;97489.31;;;23.78;62.29
32747;BME280;19118;50.860;13.662;2022-07-09T14:53:49;97491.97;;;23.37;63.06
32747;BME280;19118;50.860;13.662;2022-07-09T14:58:49;97492.00;;;23.58;63.21
32747;BME280;19118;50.860;13.662;2022-07-09T15:03:50;97485.75;;;22.59;65.20
32747;BME280;19118;50.860;13.662;2022-07-09T15:08:50;97480.63;;;21.46;69.63
32747;BME280;19118;50.860;13.662;2022-07-09T15:13:51;97477.47;;;21.05;75.17
32747;BME280;19118;50.860;13.662;2022-07-09T15:18:51;97473.56;;;20.69;77.86
32747;BME280;19118;50.860;13.662;2022-07-09T15:23:52;97479.44;;;20.44;79.29
32747;BME280;19118;50.860;13.662;2022-07-09T15:28:52;97488.06;;;20.68;78.38
32747;BME280;19118;50.860;13.662;2022-07-09T15:33:52;97486.59;;;21.04;77.32
32747;BME280;19118;50.860;13.662;2022-07-09T15:38:53;97477.59;;;20.28;79.12
32747;BME280;19118;50.860;13.662;2022-07-09T15:43:53;97446.63;;;20.86;76.83
32747;BME280;19118;50.860;13.662;2022-07-09T15:48:53;97443.56;;;21.26;75.37
32747;BME280;19118;50.860;13.662;2022-07-09T15:53:54;97449.03;;;21.36;74.30
32747;BME280;19118;50.860;13.662;2022-07-09T15:58:54;97432.69;;;21.75;74.40
32747;BME280;19118;50.860;13.662;2022-07-09T16:03:54;97434.88;;;22.20;72.15
32747;BME280;19118;50.860;13.662;2022-07-09T16:08:55;97442.84;;;21.36;72.82
32747;BME280;19118;50.860;13.662;2022-07-09T16:13:55;97433.44;;;21.11;73.95
32747;BME280;19118;50.860;13.662;2022-07-09T16:18:55;97426.47;;;21.74;74.30
32747;BME280;19118;50.860;13.662;2022-07-09T16:23:56;97413.25;;;21.09;75.94
32747;BME280;19118;50.860;13.662;2022-07-09T16:28:56;97412.94;;;21.05;75.60
32747;BME280;19118;50.860;13.662;2022-07-09T16:33:57;97418.00;;;21.29;71.85
32747;BME280;19118;50.860;13.662;2022-07-09T16:38:57;97409.78;;;21.13;70.03
32747;BME280;19118;50.860;13.662;2022-07-09T16:43:57;97399.66;;;21.20;71.02
32747;BME280;19118;50.860;13.662;2022-07-09T16:48:58;97394.94;;;21.70;69.95
32747;BME280;19118;50.860;13.662;2022-07-09T16:53:58;97391.03;;;21.18;69.99
32747;BME280;19118;50.860;13.662;2022-07-09T16:58:59;97383.44;;;21.85;67.74
32747;BME280;19118;50.860;13.662;2022-07-09T17:03:59;97372.06;;;23.94;61.65
32747;BME280;19118;50.860;13.662;2022-07-09T17:09:00;97369.06;;;25.54;56.34
32747;BME280;19118;50.860;13.662;2022-07-09T17:14:00;97374.81;;;26.72;53.64
32747;BME280;19118;50.860;13.662;2022-07-09T17:19:00;97370.22;;;27.29;53.33
32747;BME280;19118;50.860;13.662;2022-07-09T17:24:01;97377.41;;;26.16;54.82
32747;BME280;19118;50.860;13.662;2022-07-09T17:29:01;97372.34;;;25.80;56.06
32747;BME280;19118;50.860;13.662;2022-07-09T17:34:01;97373.28;;;25.65;56.63
32747;BME280;19118;50.860;13.662;2022-07-09T17:39:02;97375.56;;;25.53;56.39
32747;BME280;19118;50.860;13.662;2022-07-09T17:44:03;97373.06;;;24.24;59.26
32747;BME280;19118;50.860;13.662;2022-07-09T17:49:03;97365.41;;;21.80;64.31
32747;BME280;19118;50.860;13.662;2022-07-09T17:54:03;97365.06;;;20.75;67.17
32747;BME280;19118;50.860;13.662;2022-07-09T17:59:04;97353.53;;;19.70;70.86
32747;BME280;19118;50.860;13.662;2022-07-09T18:04:04;97357.88;;;20.37;69.96
32747;BME280;19118;50.860;13.662;2022-07-09T18:09:04;97359.25;;;19.57;72.68
32747;BME280;19118;50.860;13.662;2022-07-09T18:14:05;97357.25;;;19.86;72.31
32747;BME280;19118;50.860;13.662;2022-07-09T18:19:05;97350.63;;;19.72;73.91
32747;BME280;19118;50.860;13.662;2022-07-09T18:24:05;97341.84;;;19.43;76.14
32747;BME280;19118;50.860;13.662;2022-07-09T18:29:06;97339.22;;;18.81;78.94
32747;BME280;19118;50.860;13.662;2022-07-09T18:34:07;97333.91;;;19.14;78.07
32747;BME280;19118;50.860;13.662;2022-07-09T18:39:07;97349.28;;;18.90;79.94
32747;BME280;19118;50.860;13.662;2022-07-09T18:44:08;97356.94;;;18.99;78.29
32747;BME280;19118;50.860;13.662;2022-07-09T18:49:09;97350.53;;;19.00;78.18
32747;BME280;19118;50.860;13.662;2022-07-09T18:54:10;97348.03;;;19.10;77.72
32747;BME280;19118;50.860;13.662;2022-07-09T18:59:10;97351.53;;;18.65;78.60
32747;BME280;19118;50.860;13.662;2022-07-09T19:04:11;97347.69;;;19.23;77.12
32747;BME280;19118;50.860;13.662;2022-07-09T19:09:11;97348.84;;;18.94;77.48
32747;BME280;19118;50.860;13.662;2022-07-09T19:14:11;97355.59;;;18.27;80.44
32747;BME280;19118;50.860;13.662;2022-07-09T19:19:12;97354.31;;;18.30;80.65
32747;BME280;19118;50.860;13.662;2022-07-09T19:24:12;97353.69;;;18.40;80.93
32747;BME280;19118;50.860;13.662;2022-07-09T19:29:15;97364.81;;;18.60;80.60
32747;BME280;19118;50.860;13.662;2022-07-09T19:34:15;97361.75;;;18.68;80.02
32747;BME280;19118;50.860;13.662;2022-07-09T19:39:15;97365.66;;;19.06;78.99
32747;BME280;19118;50.860;13.662;2022-07-09T19:44:16;97375.44;;;18.83;80.71
32747;BME280;19118;50.860;13.662;2022-07-09T19:49:17;97375.41;;;18.55;81.06
32747;BME280;19118;50.860;13.662;2022-07-09T19:54:17;97379.66;;;18.79;80.48
32747;BME280;19118;50.860;13.662;2022-07-09T19:59:18;97378.78;;;18.62;80.88
32747;BME280;19118;50.860;13.662;2022-07-09T20:04:18;97390.16;;;18.81;80.84
32747;BME280;19118;50.860;13.662;2022-07-09T20:09:19;97396.59;;;18.97;80.47
32747;BME280;19118;50.860;13.662;2022-07-09T20:14:19;97396.00;;;18.66;81.20
32747;BME280;19118;50.860;13.662;2022-07-09T20:19:20;97394.44;;;18.42;82.40
32747;BME280;19118;50.860;13.662;2022-07-09T20:24:20;97395.88;;;18.21;82.91
32747;BME280;19118;50.860;13.662;2022-07-09T20:29:21;97398.69;;;18.66;82.01
32747;BME280;19118;50.860;13.662;2022-07-09T20:34:21;97404.06;;;18.95;80.23
32747;BME280;19118;50.860;13.662;2022-07-09T20:39:22;97407.50;;;19.07;79.61
32747;BME280;19118;50.860;13.662;2022-07-09T20:44:22;97404.22;;;18.48;82.14
32747;BME280;19118;50.860;13.662;2022-07-09T20:49:22;97400.94;;;18.57;81.40
32747;BME280;19118;50.860;13.662;2022-07-09T20:54:23;97401.47;;;18.19;82.73
32747;BME280;19118;50.860;13.662;2022-07-09T20:59:23;97395.81;;;18.04;83.21
32747;BME280;19118;50.860;13.662;2022-07-09T21:04:23;97393.25;;;17.97;82.67
32747;BME280;19118;50.860;13.662;2022-07-09T21:09:24;97397.56;;;17.87;83.05
32747;BME280;19118;50.860;13.662;2022-07-09T21:14:25;97393.75;;;17.71;83.56
32747;BME280;19118;50.860;13.662;2022-07-09T21:19:25;97396.97;;;17.96;82.52
32747;BME280;19118;50.860;13.662;2022-07-09T21:24:26;97387.81;;;17.81;82.25
32747;BME280;19118;50.860;13.662;2022-07-09T21:29:26;97390.56;;;18.09;81.94
32747;BME280;19118;50.860;13.662;2022-07-09T21:34:26;97389.50;;;18.10;80.58
32747;BME280;19118;50.860;13.662;2022-07-09T21:39:27;97384.06;;;18.45;79.52
32747;BME280;19118;50.860;13.662;2022-07-09T21:44:27;97383.53;;;18.31;79.30
32747;BME280;19118;50.860;13.662;2022-07-09T21:49:27;97376.81;;;18.57;78.17
32747;BME280;19118;50.860;13.662;2022-07-09T21:54:28;97385.84;;;18.40;77.44
32747;BME280;19118;50.860;13.662;2022-07-09T21:59:28;97391.06;;;17.94;79.35
32747;BME280;19118;50.860;13.662;2022-07-09T22:04:30;97391.88;;;17.71;80.13
32747;BME280;19118;50.860;13.662;2022-07-09T22:09:31;97397.63;;;17.22;80.82
32747;BME280;19118;50.860;13.662;2022-07-09T22:14:31;97399.41;;;17.51;80.60
32747;BME280;19118;50.860;13.662;2022-07-09T22:19:31;97387.34;;;17.72;79.69
32747;BME280;19118;50.860;13.662;2022-07-09T22:24:32;97392.88;;;17.24;80.14
32747;BME280;19118;50.860;13.662;2022-07-09T22:29:32;97402.88;;;17.52;79.71
32747;BME280;19118;50.860;13.662;2022-07-09T22:34:32;97402.31;;;17.38;79.44
32747;BME280;19118;50.860;13.662;2022-07-09T22:39:33;97409.69;;;17.12;79.56
32747;BME280;19118;50.860;13.662;2022-07-09T22:44:33;97409.59;;;17.31;78.90
32747;BME280;19118;50.860;13.662;2022-07-09T22:49:33;97403.81;;;17.34;78.89
32747;BME280;19118;50.860;13.662;2022-07-09T22:54:34;97409.50;;;17.26;78.58
32747;BME280;19118;50.860;13.662;2022-07-09T22:59:35;97406.41;;;17.75;76.72
32747;BME280;19118;50.860;13.662;2022-07-09T23:04:35;97413.38;;;17.77;77.12
32747;BME280;19118;50.860;13.662;2022-07-09T23:09:36;97406.03;;;17.60;77.36
32747;BME280;19118;50.860;13.662;2022-07-09T23:14:36;97413.19;;;17.90;76.88
32747;BME280;19118;50.860;13.662;2022-07-09T23:19:38;97415.19;;;17.41;77.09
32747;BME280;19118;50.860;13.662;2022-07-09T23:24:39;97415.41;;;17.28;77.43
32747;BME280;19118;50.860;13.662;2022-07-09T23:29:39;97416.22;;;17.16;77.41
32747;BME280;19118;50.860;13.662;2022-07-09T23:34:40;97414.13;;;17.18;77.63
32747;BME280;19118;50.860;13.662;2022-07-09T23:39:40;97413.56;;;17.40;76.16
32747;BME280;19118;50.860;13.662;2022-07-09T23:44:40;97405.50;;;16.75;75.56
32747;BME280;19118;50.860;13.662;2022-07-09T23:49:41;97398.41;;;16.50;75.43
32747;BME280;19118;50.860;13.662;2022-07-09T23:54:41;97401.53;;;17.07;72.92
32747;BME280;19118;50.860;13.662;2022-07-09T23:59:41;97395.91;;;16.85;72.13
